Time;durP1;ratioP1;P1;durP2;ratioP2;P2;SDS_P1;SDS_P2;PMS_P1;PMS_P2;Temp;Humidity;BMP_temperature;BMP_pressure;BME280_temperature;BME280_humidity;BME280_pressure;Samples;Min_cycle;Max_cycle;Signal;HPM_P1;HPM_P2
2022/12/08 00:01:29;;;;;;;0.10;0.10;;;;;;;;;;5031354;28;20646;-70
2022/12/08 00:03:56;;;;;;;0.10;0.10;;;;;;;;;;5033781;28;20696;-71
2022/12/08 00:09:24;;;;;;;0.10;0.10;;;;;;;;;;5016429;28;20622;-70
2022/12/08 00:11:55;;;;;;;0.10;0.10;;;;;;;;;;5034977;28;20709;-70
2022/12/08 00:14:25;;;;;;;0.10;0.10;;;;;;;;;;5031418;28;20775;-69
2022/12/08 00:16:52;;;;;;;0.10;0.10;;;;;;;;;;5020703;28;20207;-70
2022/12/08 00:19:19;;;;;;;0.10;0.10;;;;;;;;;;5025103;28;20681;-71
2022/12/08 00:21:46;;;;;;;0.10;0.10;;;;;;;;;;5035950;28;20673;-70
2022/12/08 00:24:14;;;;;;;0.10;0.10;;;;;;;;;;5017809;28;20629;-70
2022/12/08 00:26:41;;;;;;;0.10;0.10;;;;;;;;;;5018602;28;20651;-70
2022/12/08 00:29:08;;;;;;;0.10;0.10;;;;;;;;;;5024530;28;20676;-70
2022/12/08 00:31:37;;;;;;;0.10;0.10;;;;;;;;;;5038358;28;20618;-70
2022/12/08 00:34:04;;;;;;;0.10;0.10;;;;;;;;;;5018857;28;20632;-70
2022/12/08 00:36:31;;;;;;;0.00;0.00;;;;;;;;;;5034808;28;20623;-71
2022/12/08 00:38:59;;;;;;;0.10;0.10;;;;;;;;;;5020290;28;20610;-71
2022/12/08 00:44:12;;;;;;;0.10;0.10;;;;;;;;;;5033278;28;20663;-71
2022/12/08 00:46:41;;;;;;;0.10;0.10;;;;;;;;;;5015840;28;20696;-70
2022/12/08 00:49:08;;;;;;;0.10;0.10;;;;;;;;;;5017648;28;20630;-70
2022/12/08 00:51:36;;;;;;;0.10;0.10;;;;;;;;;;5014262;28;20634;-71
2022/12/08 00:54:03;;;;;;;0.10;0.10;;;;;;;;;;5017068;28;20629;-71
2022/12/08 00:56:31;;;;;;;0.10;0.10;;;;;;;;;;5020035;28;20723;-70
2022/12/08 00:58:58;;;;;;;0.10;0.10;;;;;;;;;;5015552;28;20627;-70
2022/12/08 01:01:25;;;;;;;0.10;0.10;;;;;;;;;;5024239;28;20745;-70
2022/12/08 01:03:54;;;;;;;0.10;0.10;;;;;;;;;;5015598;28;20829;-71
2022/12/08 01:06:21;;;;;;;0.10;0.10;;;;;;;;;;5035917;28;20661;-70
2022/12/08 01:08:49;;;;;;;0.10;0.10;;;;;;;;;;5020461;28;20617;-71
2022/12/08 01:11:17;;;;;;;0.10;0.10;;;;;;;;;;5031398;28;20646;-70
2022/12/08 01:13:45;;;;;;;0.10;0.10;;;;;;;;;;5034983;28;20615;-71
2022/12/08 01:16:19;;;;;;;0.10;0.10;;;;;;;;;;5032533;28;20633;-71
2022/12/08 01:18:46;;;;;;;0.10;0.10;;;;;;;;;;5035622;22;20752;-65
2022/12/08 01:21:14;;;;;;;0.10;0.10;;;;;;;;;;5008323;28;20634;-65
2022/12/08 01:23:42;;;;;;;0.10;0.10;;;;;;;;;;5017251;28;20625;-66
2022/12/08 01:26:10;;;;;;;0.10;0.10;;;;;;;;;;5034495;28;20642;-65
2022/12/08 01:28:38;;;;;;;0.10;0.10;;;;;;;;;;5030970;28;20650;-66
2022/12/08 01:31:05;;;;;;;0.10;0.10;;;;;;;;;;5015357;28;20627;-66
2022/12/08 01:33:32;;;;;;;0.10;0.10;;;;;;;;;;5017428;28;20622;-65
2022/12/08 01:36:04;;;;;;;0.10;0.10;;;;;;;;;;5013656;28;20630;-65
2022/12/08 01:38:32;;;;;;;0.10;0.10;;;;;;;;;;5017782;28;20670;-65
2022/12/08 01:41:00;;;;;;;0.10;0.10;;;;;;;;;;5017274;28;20630;-66
2022/12/08 01:43:42;;;;;;;0.10;0.10;;;;;;;;;;5017752;28;20650;-65
2022/12/08 01:46:09;;;;;;;0.10;0.10;;;;;;;;;;5016836;28;20649;-67
2022/12/08 01:48:37;;;;;;;0.10;0.10;;;;;;;;;;5017554;28;20657;-65
2022/12/08 01:51:05;;;;;;;0.10;0.10;;;;;;;;;;5013330;28;20629;-67
2022/12/08 01:53:34;;;;;;;0.10;0.10;;;;;;;;;;5016139;28;20622;-66
2022/12/08 01:56:03;;;;;;;0.10;0.10;;;;;;;;;;5019413;28;20627;-66
2022/12/08 01:58:32;;;;;;;0.10;0.10;;;;;;;;;;5018960;28;20657;-67
2022/12/08 02:00:59;;;;;;;0.10;0.10;;;;;;;;;;5016920;28;20639;-66
2022/12/08 02:03:28;;;;;;;0.10;0.10;;;;;;;;;;5018100;28;20655;-66
2022/12/08 02:05:56;;;;;;;0.10;0.10;;;;;;;;;;5015539;28;20630;-67
2022/12/08 02:08:23;;;;;;;0.10;0.10;;;;;;;;;;5013629;28;20673;-66
2022/12/08 02:10:53;;;;;;;0.10;0.10;;;;;;;;;;5018167;28;20660;-67
2022/12/08 02:13:22;;;;;;;0.10;0.10;;;;;;;;;;5018270;28;20622;-66
2022/12/08 02:15:55;;;;;;;0.10;0.10;;;;;;;;;;5016057;28;20636;-67
2022/12/08 02:18:30;;;;;;;0.10;0.10;;;;;;;;;;5012985;28;20674;-66
2022/12/08 02:21:01;;;;;;;0.10;0.10;;;;;;;;;;5014173;28;20654;-66
2022/12/08 02:23:33;;;;;;;0.10;0.10;;;;;;;;;;5017926;28;20661;-65
2022/12/08 02:26:18;;;;;;;0.10;0.10;;;;;;;;;;5016800;28;20629;-65
2022/12/08 02:29:07;;;;;;;0.10;0.10;;;;;;;;;;4992598;28;20668;-66
2022/12/08 02:31:38;;;;;;;0.10;0.10;;;;;;;;;;5018295;28;20648;-65
2022/12/08 02:34:12;;;;;;;0.10;0.10;;;;;;;;;;5016998;28;20658;-65
2022/12/08 02:36:43;;;;;;;0.10;0.10;;;;;;;;;;5008775;28;20676;-65
2022/12/08 02:39:12;;;;;;;0.10;0.10;;;;;;;;;;5032470;28;20641;-65
2022/12/08 02:41:42;;;;;;;0.10;0.10;;;;;;;;;;5032375;28;20679;-65
2022/12/08 02:44:13;;;;;;;0.10;0.10;;;;;;;;;;5015450;28;20626;-65
2022/12/08 02:46:42;;;;;;;0.10;0.10;;;;;;;;;;5031736;28;20610;-65
2022/12/08 02:49:13;;;;;;;0.10;0.10;;;;;;;;;;5031710;28;20700;-65
2022/12/08 02:51:41;;;;;;;0.10;0.10;;;;;;;;;;5015556;28;20634;-65
2022/12/08 02:54:08;;;;;;;0.10;0.10;;;;;;;;;;5032292;28;20605;-65
2022/12/08 02:56:46;;;;;;;0.10;0.10;;;;;;;;;;5014147;28;20687;-65
2022/12/08 02:59:20;;;;;;;0.10;0.10;;;;;;;;;;5034189;28;20644;-66
2022/12/08 03:02:01;;;;;;;0.10;0.10;;;;;;;;;;5034873;28;20638;-65
2022/12/08 03:04:36;;;;;;;0.10;0.10;;;;;;;;;;5032928;28;20667;-65
2022/12/08 03:07:05;;;;;;;0.10;0.10;;;;;;;;;;5013324;28;20676;-65
2022/12/08 03:09:35;;;;;;;0.10;0.10;;;;;;;;;;5015153;28;20683;-65
2022/12/08 03:12:06;;;;;;;0.10;0.10;;;;;;;;;;5015536;28;20619;-66
2022/12/08 03:14:34;;;;;;;0.10;0.10;;;;;;;;;;5013597;28;20630;-65
2022/12/08 03:17:03;;;;;;;0.10;0.10;;;;;;;;;;5015946;28;20623;-65
2022/12/08 03:19:33;;;;;;;0.10;0.10;;;;;;;;;;5011684;28;20696;-65
2022/12/08 03:22:02;;;;;;;0.00;0.00;;;;;;;;;;5031202;28;20655;-65
2022/12/08 03:24:31;;;;;;;0.10;0.10;;;;;;;;;;5014365;28;20639;-65
2022/12/08 03:27:00;;;;;;;0.10;0.10;;;;;;;;;;5018145;28;20623;-66
2022/12/08 03:29:27;;;;;;;0.10;0.10;;;;;;;;;;5013630;28;20658;-65
2022/12/08 03:31:56;;;;;;;0.10;0.10;;;;;;;;;;5014128;28;21249;-65
2022/12/08 03:34:26;;;;;;;0.10;0.10;;;;;;;;;;5029200;28;20656;-65
2022/12/08 03:36:54;;;;;;;0.10;0.10;;;;;;;;;;5016984;28;20652;-65
2022/12/08 03:39:22;;;;;;;0.10;0.10;;;;;;;;;;5031060;28;21247;-65
2022/12/08 03:41:49;;;;;;;0.10;0.10;;;;;;;;;;5016011;28;20630;-65
2022/12/08 03:44:16;;;;;;;0.10;0.10;;;;;;;;;;5031141;28;20614;-65
2022/12/08 03:46:43;;;;;;;0.10;0.10;;;;;;;;;;5029684;28;20606;-65
2022/12/08 03:49:10;;;;;;;0.10;0.10;;;;;;;;;;5015327;28;20747;-65
2022/12/08 03:51:37;;;;;;;0.10;0.10;;;;;;;;;;5028203;28;21165;-65
2022/12/08 03:54:06;;;;;;;0.10;0.10;;;;;;;;;;5014660;28;21059;-66
2022/12/08 03:56:34;;;;;;;0.10;0.10;;;;;;;;;;5019382;28;20653;-66
2022/12/08 03:59:02;;;;;;;0.10;0.10;;;;;;;;;;5031330;28;20642;-65
2022/12/08 04:01:29;;;;;;;0.10;0.10;;;;;;;;;;5026349;28;20630;-66
2022/12/08 04:03:56;;;;;;;0.10;0.10;;;;;;;;;;5013870;28;20661;-66
2022/12/08 04:06:23;;;;;;;0.10;0.10;;;;;;;;;;5033788;28;20617;-66
2022/12/08 04:08:51;;;;;;;0.10;0.10;;;;;;;;;;5030062;28;20650;-65
2022/12/08 04:11:20;;;;;;;0.10;0.10;;;;;;;;;;5032691;28;20671;-65
2022/12/08 04:13:47;;;;;;;0.10;0.10;;;;;;;;;;5013126;28;21194;-65
2022/12/08 04:16:15;;;;;;;0.10;0.10;;;;;;;;;;5014158;28;20634;-66
2022/12/08 04:18:43;;;;;;;0.10;0.10;;;;;;;;;;5014295;28;20661;-66
2022/12/08 04:21:10;;;;;;;0.10;0.10;;;;;;;;;;5030373;28;20645;-65
2022/12/08 04:23:37;;;;;;;0.10;0.10;;;;;;;;;;5028749;28;20642;-66
2022/12/08 04:26:04;;;;;;;0.10;0.10;;;;;;;;;;5032497;28;20593;-66
2022/12/08 04:28:32;;;;;;;0.10;0.10;;;;;;;;;;5014851;28;21336;-66
2022/12/08 04:31:00;;;;;;;0.10;0.10;;;;;;;;;;5031657;28;20653;-65
2022/12/08 04:33:27;;;;;;;0.10;0.10;;;;;;;;;;5013096;28;20701;-65
2022/12/08 04:35:54;;;;;;;0.10;0.10;;;;;;;;;;5011974;28;21270;-65
2022/12/08 04:38:21;;;;;;;0.00;0.00;;;;;;;;;;5030676;28;20719;-65
2022/12/08 04:40:48;;;;;;;0.10;0.10;;;;;;;;;;5030368;28;20943;-66
2022/12/08 04:43:15;;;;;;;0.10;0.10;;;;;;;;;;5014264;28;20655;-66
2022/12/08 04:45:44;;;;;;;0.10;0.10;;;;;;;;;;5031809;28;20590;-66
2022/12/08 04:48:12;;;;;;;0.10;0.10;;;;;;;;;;5008977;28;20667;-66
2022/12/08 04:50:40;;;;;;;0.10;0.10;;;;;;;;;;5012612;28;20627;-65
2022/12/08 04:53:07;;;;;;;0.10;0.10;;;;;;;;;;5029950;28;20622;-65
2022/12/08 04:55:35;;;;;;;0.10;0.10;;;;;;;;;;5030172;28;20613;-65
2022/12/08 04:58:02;;;;;;;0.10;0.10;;;;;;;;;;5012027;28;20716;-65
2022/12/08 05:00:29;;;;;;;0.10;0.10;;;;;;;;;;5027532;28;20626;-65
2022/12/08 05:02:57;;;;;;;0.10;0.10;;;;;;;;;;5030325;28;20650;-66
2022/12/08 05:05:25;;;;;;;0.10;0.10;;;;;;;;;;5009759;28;20640;-66
2022/12/08 05:07:52;;;;;;;0.10;0.10;;;;;;;;;;5015596;28;20661;-65
2022/12/08 05:10:19;;;;;;;0.10;0.10;;;;;;;;;;5013193;28;20641;-65
2022/12/08 05:12:46;;;;;;;0.10;0.10;;;;;;;;;;5011014;28;20844;-66
2022/12/08 05:15:13;;;;;;;0.10;0.10;;;;;;;;;;5028637;28;20614;-66
2022/12/08 05:17:40;;;;;;;0.10;0.10;;;;;;;;;;5014012;28;20653;-66
2022/12/08 05:20:10;;;;;;;0.10;0.10;;;;;;;;;;5013155;28;21221;-65
2022/12/08 05:22:37;;;;;;;0.10;0.10;;;;;;;;;;5031802;28;20678;-66
2022/12/08 05:25:05;;;;;;;0.10;0.10;;;;;;;;;;5006195;28;20626;-66
2022/12/08 05:27:32;;;;;;;0.10;0.10;;;;;;;;;;5017084;28;20633;-65
2022/12/08 05:29:59;;;;;;;0.10;0.10;;;;;;;;;;5010401;28;20623;-65
2022/12/08 05:32:27;;;;;;;0.10;0.10;;;;;;;;;;5014091;28;20650;-66
2022/12/08 05:34:54;;;;;;;0.10;0.10;;;;;;;;;;5012890;28;21141;-66
2022/12/08 05:37:22;;;;;;;0.03;0.03;;;;;;;;;;5012631;28;20615;-66
2022/12/08 05:39:50;;;;;;;0.10;0.10;;;;;;;;;;5011403;28;20720;-66
2022/12/08 05:42:17;;;;;;;0.10;0.10;;;;;;;;;;5011938;28;20630;-66
2022/12/08 05:44:44;;;;;;;0.10;0.10;;;;;;;;;;5009223;28;20662;-66
2022/12/08 05:47:11;;;;;;;0.10;0.10;;;;;;;;;;5026881;28;20661;-65
2022/12/08 05:49:38;;;;;;;0.10;0.10;;;;;;;;;;5031063;28;20645;-66
2022/12/08 05:52:06;;;;;;;0.10;0.10;;;;;;;;;;5026420;28;20733;-65
2022/12/08 05:54:34;;;;;;;0.10;0.10;;;;;;;;;;5022397;28;20626;-66
2022/12/08 05:57:01;;;;;;;0.10;0.10;;;;;;;;;;5028965;28;20619;-65
2022/12/08 05:59:29;;;;;;;0.10;0.10;;;;;;;;;;5008826;28;20690;-66
2022/12/08 06:01:56;;;;;;;0.10;0.10;;;;;;;;;;5029021;28;20677;-66
2022/12/08 06:04:23;;;;;;;0.10;0.10;;;;;;;;;;5009679;28;20693;-66
2022/12/08 06:06:50;;;;;;;0.10;0.10;;;;;;;;;;5015228;28;20618;-66
2022/12/08 06:09:17;;;;;;;0.10;0.10;;;;;;;;;;5031363;28;20699;-66
2022/12/08 06:11:46;;;;;;;0.10;0.10;;;;;;;;;;5016749;28;20629;-66
2022/12/08 06:14:14;;;;;;;0.10;0.10;;;;;;;;;;5031377;28;21257;-66
2022/12/08 06:16:41;;;;;;;0.10;0.10;;;;;;;;;;5033520;28;21170;-65
2022/12/08 06:19:08;;;;;;;0.10;0.10;;;;;;;;;;5017612;28;20718;-66
2022/12/08 06:21:35;;;;;;;0.10;0.10;;;;;;;;;;5030949;28;20649;-66
2022/12/08 06:24:02;;;;;;;0.10;0.10;;;;;;;;;;5015879;28;20651;-65
2022/12/08 06:26:29;;;;;;;0.10;0.10;;;;;;;;;;5017058;28;20652;-66
2022/12/08 06:28:59;;;;;;;0.10;0.10;;;;;;;;;;5018684;28;20820;-66
2022/12/08 06:31:27;;;;;;;0.10;0.10;;;;;;;;;;5013273;28;20732;-65
2022/12/08 06:33:55;;;;;;;0.10;0.10;;;;;;;;;;5016395;28;20643;-65
2022/12/08 06:36:23;;;;;;;0.10;0.10;;;;;;;;;;5010886;28;20638;-65
2022/12/08 06:38:50;;;;;;;0.10;0.10;;;;;;;;;;5031448;28;20645;-66
2022/12/08 06:41:18;;;;;;;0.10;0.10;;;;;;;;;;5015410;28;20715;-65
2022/12/08 06:43:45;;;;;;;0.10;0.10;;;;;;;;;;5033157;28;21216;-65
2022/12/08 06:46:14;;;;;;;0.10;0.10;;;;;;;;;;5016752;28;20634;-66
2022/12/08 06:48:42;;;;;;;0.10;0.10;;;;;;;;;;5013604;28;20670;-65
2022/12/08 06:51:10;;;;;;;0.10;0.10;;;;;;;;;;5032425;28;20610;-67
2022/12/08 06:53:37;;;;;;;0.10;0.10;;;;;;;;;;5014227;28;20614;-66
2022/12/08 06:56:04;;;;;;;0.10;0.10;;;;;;;;;;5016512;28;21020;-66
2022/12/08 06:58:32;;;;;;;0.10;0.10;;;;;;;;;;5013474;28;20669;-66
2022/12/08 07:01:03;;;;;;;0.10;0.10;;;;;;;;;;5013987;28;20641;-66
2022/12/08 07:03:32;;;;;;;0.10;0.10;;;;;;;;;;5029807;28;20625;-66
2022/12/08 07:05:59;;;;;;;0.10;0.10;;;;;;;;;;5034417;28;20610;-66
2022/12/08 07:08:26;;;;;;;0.10;0.10;;;;;;;;;;5018410;28;20665;-66
2022/12/08 07:10:53;;;;;;;0.10;0.10;;;;;;;;;;5034313;28;20645;-66
2022/12/08 07:13:20;;;;;;;0.10;0.10;;;;;;;;;;5018753;28;20631;-66
2022/12/08 07:15:48;;;;;;;0.10;0.10;;;;;;;;;;5038830;28;20680;-66
2022/12/08 07:18:15;;;;;;;0.10;0.10;;;;;;;;;;5022011;28;20743;-66
2022/12/08 07:20:43;;;;;;;0.10;0.10;;;;;;;;;;5018843;28;20633;-66
2022/12/08 07:23:10;;;;;;;0.10;0.10;;;;;;;;;;5033819;28;20606;-66
2022/12/08 07:25:38;;;;;;;0.10;0.10;;;;;;;;;;5035399;28;20680;-65
2022/12/08 07:28:08;;;;;;;0.10;0.10;;;;;;;;;;5038321;28;20642;-65
2022/12/08 07:30:36;;;;;;;0.10;0.10;;;;;;;;;;5035579;28;20598;-66
2022/12/08 07:33:03;;;;;;;0.10;0.10;;;;;;;;;;5039864;28;20606;-66
2022/12/08 07:35:30;;;;;;;0.10;0.10;;;;;;;;;;5021971;28;20619;-66
2022/12/08 07:37:59;;;;;;;0.10;0.10;;;;;;;;;;5021749;28;20661;-66
2022/12/08 07:40:26;;;;;;;0.10;0.10;;;;;;;;;;5035953;28;20613;-66
2022/12/08 07:42:53;;;;;;;0.10;0.10;;;;;;;;;;5018356;28;20626;-66
2022/12/08 07:45:20;;;;;;;0.10;0.10;;;;;;;;;;5037603;28;20654;-66
2022/12/08 07:47:47;;;;;;;0.10;0.10;;;;;;;;;;5038487;28;20618;-66
2022/12/08 07:50:14;;;;;;;0.10;0.10;;;;;;;;;;5020479;28;20630;-66
2022/12/08 07:52:42;;;;;;;0.10;0.10;;;;;;;;;;5038327;28;20615;-66
2022/12/08 07:55:10;;;;;;;0.10;0.10;;;;;;;;;;5035181;28;20648;-65
2022/12/08 07:57:37;;;;;;;0.10;0.10;;;;;;;;;;5022025;28;20634;-66
2022/12/08 08:00:05;;;;;;;0.10;0.10;;;;;;;;;;5041495;28;20639;-66
2022/12/08 08:02:38;;;;;;;0.10;0.10;;;;;;;;;;5040945;28;20598;-66
2022/12/08 08:05:06;;;;;;;0.10;0.10;;;;;;;;;;5019242;28;20735;-67
2022/12/08 08:07:33;;;;;;;0.10;0.10;;;;;;;;;;5018518;28;20618;-66
2022/12/08 08:10:00;;;;;;;0.10;0.10;;;;;;;;;;5020218;28;20650;-65
2022/12/08 08:12:29;;;;;;;0.10;0.10;;;;;;;;;;5039440;28;20615;-66
2022/12/08 08:14:56;;;;;;;0.10;0.10;;;;;;;;;;5010049;28;20633;-65
2022/12/08 08:17:24;;;;;;;0.10;0.10;;;;;;;;;;5035665;28;20587;-66
2022/12/08 08:19:51;;;;;;;0.10;0.10;;;;;;;;;;5018331;28;20677;-65
2022/12/08 08:22:18;;;;;;;0.10;0.10;;;;;;;;;;5018865;28;20633;-66
2022/12/08 08:24:45;;;;;;;0.10;0.10;;;;;;;;;;5019772;28;20654;-65
2022/12/08 08:27:13;;;;;;;0.10;0.10;;;;;;;;;;5030131;28;20626;-65
2022/12/08 08:29:42;;;;;;;0.10;0.10;;;;;;;;;;5019449;28;20662;-66
2022/12/08 08:32:09;;;;;;;0.10;0.10;;;;;;;;;;5019457;28;20653;-65
2022/12/08 08:34:36;;;;;;;0.10;0.10;;;;;;;;;;5018060;28;20627;-66
2022/12/08 08:37:04;;;;;;;0.10;0.10;;;;;;;;;;5020093;28;20215;-66
2022/12/08 08:39:31;;;;;;;0.10;0.10;;;;;;;;;;5034506;28;20641;-65
2022/12/08 08:41:58;;;;;;;0.10;0.10;;;;;;;;;;5018144;28;20626;-65
2022/12/08 08:44:25;;;;;;;0.10;0.10;;;;;;;;;;5020495;28;20649;-66
2022/12/08 08:46:54;;;;;;;0.10;0.10;;;;;;;;;;5013034;28;20615;-66
2022/12/08 08:49:21;;;;;;;0.10;0.10;;;;;;;;;;5038538;28;20652;-65
2022/12/08 08:51:48;;;;;;;0.10;0.10;;;;;;;;;;5023524;28;20625;-65
2022/12/08 08:54:15;;;;;;;0.10;0.10;;;;;;;;;;5032575;28;20609;-65
2022/12/08 08:56:43;;;;;;;0.10;0.10;;;;;;;;;;5013729;28;20633;-65
2022/12/08 08:59:10;;;;;;;0.10;0.10;;;;;;;;;;5036513;28;20657;-64
2022/12/08 09:01:37;;;;;;;0.10;0.10;;;;;;;;;;5019914;28;20631;-66
2022/12/08 09:04:06;;;;;;;0.10;0.10;;;;;;;;;;5017500;28;20650;-67
2022/12/08 09:06:33;;;;;;;0.10;0.10;;;;;;;;;;5015417;28;20622;-65
2022/12/08 09:09:00;;;;;;;0.10;0.10;;;;;;;;;;5019636;28;20661;-66
2022/12/08 09:11:28;;;;;;;0.10;0.10;;;;;;;;;;5019365;28;20642;-67
2022/12/08 09:13:55;;;;;;;0.10;0.10;;;;;;;;;;5020249;28;20623;-66
2022/12/08 09:16:23;;;;;;;0.10;0.10;;;;;;;;;;5016022;28;20636;-67
2022/12/08 09:18:50;;;;;;;0.10;0.10;;;;;;;;;;5017274;28;20666;-66
2022/12/08 09:21:21;;;;;;;0.10;0.10;;;;;;;;;;5017649;28;20665;-66
2022/12/08 09:23:48;;;;;;;0.10;0.10;;;;;;;;;;5037108;28;20598;-66
2022/12/08 09:26:15;;;;;;;0.10;0.10;;;;;;;;;;5014170;28;20661;-66
2022/12/08 09:28:45;;;;;;;0.10;0.10;;;;;;;;;;5037112;28;20664;-66
2022/12/08 09:31:13;;;;;;;0.10;0.10;;;;;;;;;;5018144;28;20669;-66
2022/12/08 09:33:40;;;;;;;0.10;0.10;;;;;;;;;;5037210;28;21147;-66
2022/12/08 09:36:07;;;;;;;0.10;0.10;;;;;;;;;;5019429;28;20651;-66
2022/12/08 09:38:36;;;;;;;0.10;0.10;;;;;;;;;;5015894;28;20673;-66
2022/12/08 09:41:05;;;;;;;0.10;0.10;;;;;;;;;;5016460;28;20628;-66
2022/12/08 09:43:41;;;;;;;0.10;0.10;;;;;;;;;;5018772;28;20627;-63
2022/12/08 09:46:10;;;;;;;0.10;0.10;;;;;;;;;;5021716;28;20700;-64
2022/12/08 09:48:39;;;;;;;0.10;0.10;;;;;;;;;;5021064;28;20651;-64
2022/12/08 09:51:07;;;;;;;0.10;0.10;;;;;;;;;;5019546;28;20627;-65
2022/12/08 09:53:37;;;;;;;0.10;0.10;;;;;;;;;;5024277;28;20637;-64
2022/12/08 09:56:06;;;;;;;0.10;0.10;;;;;;;;;;5021261;28;20642;-67
2022/12/08 09:58:39;;;;;;;0.10;0.10;;;;;;;;;;5025355;28;20660;-66
2022/12/08 10:01:06;;;;;;;0.10;0.10;;;;;;;;;;5014720;28;20625;-66
2022/12/08 10:03:33;;;;;;;0.00;0.00;;;;;;;;;;5020421;28;20637;-65
2022/12/08 10:06:03;;;;;;;0.10;0.10;;;;;;;;;;5020891;28;21235;-66
2022/12/08 10:08:36;;;;;;;0.10;0.10;;;;;;;;;;5020715;28;20661;-66
2022/12/08 10:11:09;;;;;;;0.10;0.10;;;;;;;;;;5019896;28;20634;-66
2022/12/08 10:13:39;;;;;;;0.10;0.10;;;;;;;;;;5021752;28;20634;-65
2022/12/08 10:16:11;;;;;;;0.10;0.10;;;;;;;;;;5040116;28;20598;-66
2022/12/08 10:18:38;;;;;;;0.10;0.10;;;;;;;;;;5019553;28;20670;-66
2022/12/08 10:21:12;;;;;;;0.10;0.10;;;;;;;;;;5036875;28;20617;-66
2022/12/08 10:23:40;;;;;;;0.10;0.10;;;;;;;;;;5019787;28;20634;-66
2022/12/08 10:26:14;;;;;;;0.10;0.10;;;;;;;;;;5019379;28;20657;-66
2022/12/08 10:28:41;;;;;;;0.10;0.10;;;;;;;;;;5020094;28;20704;-66
2022/12/08 10:31:14;;;;;;;0.03;0.03;;;;;;;;;;5019859;28;21046;-65
2022/12/08 10:33:42;;;;;;;0.10;0.10;;;;;;;;;;5014204;28;20681;-65
2022/12/08 10:36:11;;;;;;;0.10;0.10;;;;;;;;;;5038102;28;20590;-66
2022/12/08 10:38:39;;;;;;;0.10;0.10;;;;;;;;;;5021472;28;20657;-66
2022/12/08 10:41:12;;;;;;;0.10;0.10;;;;;;;;;;5037842;28;20590;-65
2022/12/08 10:43:42;;;;;;;0.10;0.10;;;;;;;;;;5012534;28;21060;-66
2022/12/08 10:46:11;;;;;;;0.00;0.00;;;;;;;;;;5020822;28;20667;-66
2022/12/08 10:48:47;;;;;;;0.10;0.10;;;;;;;;;;5019482;28;20665;-66
2022/12/08 10:51:22;;;;;;;0.10;0.10;;;;;;;;;;5039553;28;20650;-65
2022/12/08 10:53:49;;;;;;;0.10;0.10;;;;;;;;;;5022292;28;20687;-66
2022/12/08 10:56:18;;;;;;;0.10;0.10;;;;;;;;;;5017067;28;20614;-65
2022/12/08 10:58:46;;;;;;;0.10;0.10;;;;;;;;;;5038862;28;20644;-66
2022/12/08 11:01:14;;;;;;;0.10;0.10;;;;;;;;;;5042288;28;20606;-66
2022/12/08 11:03:45;;;;;;;0.10;0.10;;;;;;;;;;5020006;28;20638;-66
2022/12/08 11:06:15;;;;;;;0.00;0.00;;;;;;;;;;5038699;28;20735;-66
2022/12/08 11:08:48;;;;;;;0.10;0.10;;;;;;;;;;5021163;28;21264;-66
2022/12/08 11:11:15;;;;;;;0.10;0.10;;;;;;;;;;5010905;28;20725;-66
2022/12/08 11:13:44;;;;;;;0.10;0.10;;;;;;;;;;5016594;28;20636;-68
2022/12/08 11:16:14;;;;;;;0.10;0.10;;;;;;;;;;5021997;28;20633;-67
2022/12/08 11:18:42;;;;;;;0.10;0.10;;;;;;;;;;5019856;28;20676;-66
2022/12/08 11:21:11;;;;;;;0.10;0.10;;;;;;;;;;5023964;28;20622;-65
2022/12/08 11:23:38;;;;;;;0.10;0.10;;;;;;;;;;5032066;28;20590;-66
2022/12/08 11:26:08;;;;;;;0.10;0.10;;;;;;;;;;5037053;28;20661;-66
2022/12/08 11:28:35;;;;;;;0.10;0.10;;;;;;;;;;5020381;28;20651;-66
2022/12/08 11:31:07;;;;;;;0.10;0.10;;;;;;;;;;5022152;28;20752;-65
2022/12/08 11:33:35;;;;;;;0.10;0.10;;;;;;;;;;5034355;28;20587;-66
2022/12/08 11:36:04;;;;;;;0.00;0.00;;;;;;;;;;5018279;28;21265;-67
2022/12/08 11:38:32;;;;;;;0.10;0.10;;;;;;;;;;5019195;28;20751;-67
2022/12/08 11:41:02;;;;;;;0.00;0.00;;;;;;;;;;5018839;28;20654;-67
2022/12/08 11:43:32;;;;;;;0.10;0.10;;;;;;;;;;5019313;28;20644;-69
2022/12/08 11:46:00;;;;;;;0.10;0.10;;;;;;;;;;5018900;28;20697;-68
2022/12/08 11:48:32;;;;;;;0.10;0.10;;;;;;;;;;5038446;28;20738;-66
2022/12/08 11:51:01;;;;;;;0.00;0.00;;;;;;;;;;5019542;28;20670;-66
2022/12/08 11:53:33;;;;;;;0.10;0.10;;;;;;;;;;5020074;28;21057;-66
2022/12/08 11:56:04;;;;;;;0.10;0.10;;;;;;;;;;5020174;28;20621;-67
2022/12/08 11:58:35;;;;;;;0.10;0.10;;;;;;;;;;5017070;28;20670;-66
2022/12/08 12:01:02;;;;;;;0.10;0.10;;;;;;;;;;5014785;28;20987;-67
2022/12/08 12:03:34;;;;;;;0.00;0.00;;;;;;;;;;5018967;28;20622;-67
2022/12/08 12:06:10;;;;;;;0.10;0.10;;;;;;;;;;5018771;28;20682;-67
2022/12/08 12:08:44;;;;;;;0.10;0.10;;;;;;;;;;5018868;28;21245;-67
2022/12/08 12:12:11;;;;;;;0.10;0.10;;;;;;;;;;5020690;28;20701;-67
2022/12/08 12:14:09;;;;;;;0.10;0.10;;;;;;;;;;5036388;28;20611;-67
2022/12/08 12:16:46;;;;;;;0.10;0.10;;;;;;;;;;5021055;28;20634;-67
2022/12/08 12:19:16;;;;;;;0.10;0.10;;;;;;;;;;5017959;28;20662;-66
2022/12/08 12:21:44;;;;;;;0.10;0.10;;;;;;;;;;5023164;28;20629;-67
2022/12/08 12:24:17;;;;;;;0.10;0.10;;;;;;;;;;5034727;28;20606;-67
2022/12/08 12:26:52;;;;;;;0.10;0.10;;;;;;;;;;5035179;28;20653;-66
2022/12/08 12:29:22;;;;;;;0.10;0.10;;;;;;;;;;5036721;28;20645;-66
2022/12/08 12:31:53;;;;;;;0.10;0.10;;;;;;;;;;5028462;28;20722;-65
2022/12/08 12:34:22;;;;;;;0.10;0.10;;;;;;;;;;5012807;28;20630;-66
2022/12/08 12:36:50;;;;;;;0.10;0.10;;;;;;;;;;5029606;28;20595;-66
2022/12/08 12:39:19;;;;;;;0.10;0.10;;;;;;;;;;5010518;28;20672;-65
2022/12/08 12:41:49;;;;;;;0.10;0.10;;;;;;;;;;5033305;28;20605;-66
2022/12/08 12:44:24;;;;;;;0.10;0.10;;;;;;;;;;5013217;28;20634;-66
2022/12/08 12:46:55;;;;;;;0.10;0.10;;;;;;;;;;5013829;28;20658;-66
2022/12/08 12:49:42;;;;;;;0.10;0.10;;;;;;;;;;5011457;28;20680;-66
2022/12/08 12:52:24;;;;;;;0.10;0.10;;;;;;;;;;5017467;28;21139;-66
2022/12/08 12:55:06;;;;;;;0.10;0.10;;;;;;;;;;5014862;28;20668;-66
2022/12/08 12:57:36;;;;;;;0.10;0.10;;;;;;;;;;5012445;28;20638;-65
2022/12/08 13:00:08;;;;;;;0.10;0.10;;;;;;;;;;5016798;28;20634;-65
2022/12/08 13:02:39;;;;;;;0.10;0.10;;;;;;;;;;5015344;28;20626;-65
2022/12/08 13:05:09;;;;;;;0.10;0.10;;;;;;;;;;5006408;28;20723;-66
2022/12/08 13:07:42;;;;;;;0.10;0.10;;;;;;;;;;5028353;28;20615;-66
2022/12/08 13:10:16;;;;;;;0.10;0.10;;;;;;;;;;5029104;28;20616;-66
2022/12/08 13:12:45;;;;;;;0.00;0.00;;;;;;;;;;5016826;28;20637;-65
2022/12/08 13:15:18;;;;;;;0.10;0.10;;;;;;;;;;5013774;28;20643;-65
2022/12/08 13:17:47;;;;;;;0.10;0.10;;;;;;;;;;5013232;28;20625;-65
2022/12/08 13:20:19;;;;;;;0.10;0.10;;;;;;;;;;5028915;28;20602;-65
2022/12/08 13:22:48;;;;;;;0.10;0.10;;;;;;;;;;5005796;28;20635;-66
2022/12/08 13:25:33;;;;;;;0.10;0.10;;;;;;;;;;5012680;28;20964;-66
2022/12/08 13:28:09;;;;;;;0.10;0.10;;;;;;;;;;5001127;28;20674;-65
2022/12/08 13:30:43;;;;;;;0.10;0.10;;;;;;;;;;5012887;28;20627;-65
2022/12/08 13:33:12;;;;;;;0.10;0.10;;;;;;;;;;5031005;28;20593;-65
2022/12/08 13:35:41;;;;;;;0.10;0.10;;;;;;;;;;5007972;28;20648;-66
2022/12/08 13:38:09;;;;;;;0.10;0.10;;;;;;;;;;5005885;28;20673;-65
2022/12/08 13:40:37;;;;;;;0.03;0.03;;;;;;;;;;5015064;28;20618;-66
2022/12/08 13:43:11;;;;;;;0.10;0.10;;;;;;;;;;5012565;28;20627;-65
2022/12/08 13:45:40;;;;;;;0.10;0.10;;;;;;;;;;5030718;28;20662;-65
2022/12/08 13:48:12;;;;;;;0.10;0.10;;;;;;;;;;5031841;28;20761;-66
2022/12/08 13:50:41;;;;;;;0.10;0.10;;;;;;;;;;5006515;28;20634;-65
2022/12/08 13:53:12;;;;;;;0.10;0.10;;;;;;;;;;5034140;28;20621;-65
2022/12/08 13:55:41;;;;;;;0.10;0.10;;;;;;;;;;5015772;28;20642;-65
2022/12/08 13:58:16;;;;;;;0.10;0.10;;;;;;;;;;5024258;28;20676;-64
2022/12/08 14:00:43;;;;;;;0.10;0.10;;;;;;;;;;5011288;28;20634;-65
2022/12/08 14:03:13;;;;;;;0.10;0.10;;;;;;;;;;5013423;28;20634;-64
2022/12/08 14:05:41;;;;;;;0.10;0.10;;;;;;;;;;5012743;28;20656;-64
2022/12/08 14:08:16;;;;;;;0.10;0.10;;;;;;;;;;5033353;28;20696;-64
2022/12/08 14:10:43;;;;;;;0.10;0.10;;;;;;;;;;5012662;28;20641;-64
2022/12/08 14:13:12;;;;;;;0.10;0.10;;;;;;;;;;5030692;28;20737;-64
2022/12/08 14:15:41;;;;;;;0.10;0.10;;;;;;;;;;5028803;28;20643;-65
2022/12/08 14:18:23;;;;;;;0.10;0.10;;;;;;;;;;5026522;28;20691;-64
2022/12/08 14:21:00;;;;;;;0.00;0.00;;;;;;;;;;5031334;28;20613;-64
2022/12/08 14:23:27;;;;;;;0.10;0.10;;;;;;;;;;5013926;28;20716;-64
2022/12/08 14:25:55;;;;;;;0.10;0.10;;;;;;;;;;5034750;28;20664;-64
2022/12/08 14:28:22;;;;;;;0.10;0.10;;;;;;;;;;5004557;28;20665;-64
2022/12/08 14:30:51;;;;;;;0.10;0.10;;;;;;;;;;5024787;28;20692;-64
2022/12/08 14:33:18;;;;;;;0.10;0.10;;;;;;;;;;5034668;28;20618;-64
2022/12/08 14:35:50;;;;;;;0.00;0.00;;;;;;;;;;5036351;28;20601;-64
2022/12/08 14:38:17;;;;;;;0.10;0.10;;;;;;;;;;5033541;28;20633;-64
2022/12/08 14:40:45;;;;;;;0.00;0.00;;;;;;;;;;5019128;28;20649;-64
2022/12/08 14:43:17;;;;;;;0.10;0.10;;;;;;;;;;5015614;28;20654;-64
2022/12/08 14:45:53;;;;;;;0.07;0.07;;;;;;;;;;5013186;28;20662;-64
2022/12/08 14:48:24;;;;;;;0.10;0.10;;;;;;;;;;5030487;28;20649;-64
2022/12/08 14:50:58;;;;;;;0.03;0.03;;;;;;;;;;5017024;28;20630;-64
2022/12/08 14:53:26;;;;;;;0.00;0.00;;;;;;;;;;5015096;28;20633;-65
2022/12/08 14:55:53;;;;;;;0.10;0.10;;;;;;;;;;5016078;28;20688;-64
2022/12/08 14:58:23;;;;;;;0.10;0.10;;;;;;;;;;5014254;28;21018;-64
2022/12/08 15:00:53;;;;;;;0.10;0.10;;;;;;;;;;5017189;28;20625;-64